Time;durP1;ratioP1;P1;durP2;ratioP2;P2;SDS_P1;SDS_P2;PMS_P1;PMS_P2;Temp;Humidity;BMP_temperature;BMP_pressure;BME280_temperature;BME280_humidity;BME280_pressure;Samples;Min_cycle;Max_cycle;Signal;HPM_P1;HPM_P2
2023/03/04 00:02:00;;;;;;;12.18;1.85;;;6.80;99.90;;;;;;4882602;29;20071;-78
2023/03/04 00:04:26;;;;;;;18.30;4.13;;;6.80;99.90;;;;;;4881422;29;20029;-79
2023/03/04 00:06:52;;;;;;;7.22;1.10;;;6.90;99.90;;;;;;4897746;29;20035;-79
2023/03/04 00:09:18;;;;;;;16.15;1.60;;;6.90;99.90;;;;;;4897820;29;20055;-79
2023/03/04 00:11:43;;;;;;;11.60;1.00;;;7.00;99.90;;;;;;4897134;29;20470;-78
2023/03/04 00:14:09;;;;;;;12.20;1.60;;;6.90;99.90;;;;;;4896060;29;20533;-79
2023/03/04 00:16:35;;;;;;;8.43;1.58;;;6.80;99.90;;;;;;4884451;29;20036;-79
2023/03/04 00:19:00;;;;;;;6.53;0.93;;;6.80;99.90;;;;;;4901021;29;20032;-79
2023/03/04 00:21:26;;;;;;;15.35;1.60;;;6.80;99.90;;;;;;4884186;29;20060;-79
2023/03/04 00:23:52;;;;;;;11.30;1.30;;;6.80;99.90;;;;;;4900546;29;20482;-78
2023/03/04 00:26:19;;;;;;;8.57;1.33;;;6.80;99.90;;;;;;4900901;29;20540;-80
2023/03/04 00:28:44;;;;;;;9.95;1.80;;;6.80;99.90;;;;;;4900519;29;20024;-79
2023/03/04 00:31:10;;;;;;;6.93;1.20;;;6.80;99.90;;;;;;4900192;29;20029;-79
2023/03/04 00:33:36;;;;;;;25.45;2.35;;;6.90;99.90;;;;;;4883106;29;20037;-79
2023/03/04 00:36:03;;;;;;;9.07;1.50;;;6.80;99.90;;;;;;4900729;29;20029;-79
2023/03/04 00:38:29;;;;;;;12.35;1.90;;;6.80;99.90;;;;;;4882844;29;20044;-79
2023/03/04 00:40:54;;;;;;;14.38;1.83;;;6.80;99.90;;;;;;4900536;29;20035;-78
2023/03/04 00:43:20;;;;;;;13.05;0.90;;;6.80;99.90;;;;;;4899852;29;20029;-79
2023/03/04 00:45:46;;;;;;;10.05;1.40;;;6.80;99.90;;;;;;4882894;29;20488;-79
2023/03/04 00:48:13;;;;;;;10.57;2.95;;;6.80;99.90;;;;;;4899370;29;20040;-79
2023/03/04 00:50:39;;;;;;;5.88;1.33;;;6.80;99.90;;;;;;4888042;29;20025;-79
2023/03/04 00:53:05;;;;;;;11.05;0.90;;;6.80;99.90;;;;;;4871380;29;20359;-78
2023/03/04 00:55:32;;;;;;;14.13;1.67;;;6.70;99.90;;;;;;4883141;29;20401;-79
2023/03/04 00:57:58;;;;;;;8.82;1.45;;;6.70;99.90;;;;;;4906268;29;20417;-79
2023/03/04 01:00:24;;;;;;;9.63;1.17;;;6.70;99.90;;;;;;4901671;29;20030;-79
2023/03/04 01:02:49;;;;;;;8.75;1.17;;;6.70;99.90;;;;;;4919144;29;20031;-78
2023/03/04 01:05:16;;;;;;;20.80;1.92;;;6.70;99.90;;;;;;4918858;29;20024;-79
2023/03/04 01:07:41;;;;;;;6.32;1.80;;;6.70;99.90;;;;;;4918505;29;20040;-79
2023/03/04 01:10:11;;;;;;;11.05;1.23;;;6.80;99.90;;;;;;4918692;29;20111;-77
2023/03/04 01:12:37;;;;;;;19.48;1.70;;;6.70;99.90;;;;;;4918434;29;20032;-79
2023/03/04 01:15:03;;;;;;;11.27;1.35;;;6.70;99.90;;;;;;4900513;29;20508;-79
2023/03/04 01:17:28;;;;;;;18.20;1.25;;;6.60;99.90;;;;;;4917247;29;20095;-79
2023/03/04 01:19:56;;;;;;;5.82;1.15;;;6.70;99.90;;;;;;4901688;29;20476;-80
2023/03/04 01:22:21;;;;;;;3.63;0.73;;;6.60;99.90;;;;;;4917190;29;20051;-79
2023/03/04 01:24:47;;;;;;;4.32;0.75;;;6.60;99.90;;;;;;4900322;29;20485;-80
2023/03/04 01:27:13;;;;;;;6.50;0.90;;;6.60;99.90;;;;;;4910758;29;20107;-80
2023/03/04 01:29:39;;;;;;;4.53;0.93;;;6.60;99.90;;;;;;4883145;29;20028;-81
2023/03/04 01:32:05;;;;;;;8.82;1.02;;;6.60;99.90;;;;;;4861285;29;20152;-81
2023/03/04 01:34:30;;;;;;;14.73;1.30;;;6.60;99.90;;;;;;4860041;29;20061;-81
2023/03/04 01:36:56;;;;;;;8.02;1.27;;;6.60;99.90;;;;;;4860120;29;20487;-80
2023/03/04 01:39:22;;;;;;;11.40;1.15;;;6.50;99.90;;;;;;4859912;29;20040;-81
2023/03/04 01:41:48;;;;;;;10.52;2.03;;;6.60;99.90;;;;;;4860343;29;20076;-81
2023/03/04 01:44:14;;;;;;;11.93;1.55;;;6.60;99.90;;;;;;4860239;29;20049;-82
2023/03/04 01:46:47;;;;;;;15.82;1.83;;;6.70;99.90;;;;;;4859981;29;20118;-82
2023/03/04 01:49:15;;;;;;;13.55;1.48;;;6.60;99.90;;;;;;4844610;29;20188;-83
2023/03/04 01:51:45;;;;;;;9.45;1.65;;;6.70;99.90;;;;;;4845146;29;20037;-82
2023/03/04 01:54:10;;;;;;;11.95;1.25;;;6.70;99.90;;;;;;4860287;29;20448;-82
2023/03/04 01:56:38;;;;;;;6.07;2.38;;;6.60;99.90;;;;;;4860460;29;20053;-83
2023/03/04 01:59:19;;;;;;;4.55;1.13;;;6.60;99.90;;;;;;4860307;29;20052;-83
2023/03/04 02:01:57;;;;;;;13.98;1.80;;;6.60;99.90;;;;;;4845168;29;20037;-85
2023/03/04 02:04:29;;;;;;;5.95;1.00;;;6.60;99.90;;;;;;4901755;29;20033;-82
2023/03/04 02:06:56;;;;;;;11.52;1.08;;;6.60;99.90;;;;;;4902549;29;20122;-83
2023/03/04 02:09:22;;;;;;;16.95;1.20;;;6.60;99.90;;;;;;4902778;29;20032;-82
2023/03/04 02:11:49;;;;;;;12.02;1.02;;;6.70;99.90;;;;;;4902605;29;20493;-83
2023/03/04 02:14:16;;;;;;;4.75;1.08;;;6.70;99.90;;;;;;4919096;29;20052;-82
2023/03/04 02:16:42;;;;;;;9.85;0.65;;;6.60;99.90;;;;;;4920249;29;20024;-83
2023/03/04 02:19:43;;;;;;;7.75;1.27;;;6.60;99.90;;;;;;4929807;29;20032;-83
2023/03/04 02:22:10;;;;;;;9.27;1.65;;;6.60;99.90;;;;;;4917415;29;20028;-82
2023/03/04 02:24:47;;;;;;;16.33;1.13;;;6.70;99.90;;;;;;4920017;29;20036;-83
2023/03/04 02:27:13;;;;;;;9.20;2.35;;;6.60;99.90;;;;;;4920595;29;20040;-83
2023/03/04 02:29:39;;;;;;;10.25;1.25;;;6.60;99.90;;;;;;4924668;29;20089;-83
2023/03/04 02:32:05;;;;;;;10.70;1.55;;;6.70;99.90;;;;;;4941791;29;20024;-83
2023/03/04 02:34:33;;;;;;;6.38;1.08;;;6.60;99.90;;;;;;4926189;29;20044;-82
2023/03/04 02:37:02;;;;;;;18.17;2.10;;;6.60;99.90;;;;;;4942208;29;20028;-80
2023/03/04 02:39:39;;;;;;;7.03;1.35;;;6.50;99.90;;;;;;4942338;29;20105;-82
2023/03/04 02:42:06;;;;;;;1.75;0.90;;;6.40;99.90;;;;;;4926120;29;20022;-82
2023/03/04 02:44:34;;;;;;;8.57;1.50;;;6.50;99.90;;;;;;4942406;29;20052;-82
2023/03/04 02:47:01;;;;;;;1.23;0.68;;;6.50;99.90;;;;;;4926040;29;20040;-80
2023/03/04 02:49:30;;;;;;;7.20;0.40;;;6.50;99.90;;;;;;4925739;29;20036;-81
2023/03/04 02:52:07;;;;;;;3.33;0.90;;;6.50;99.90;;;;;;4942238;29;20044;-82
2023/03/04 02:54:33;;;;;;;8.83;0.90;;;6.50;99.90;;;;;;4944788;29;20027;-81
2023/03/04 02:57:04;;;;;;;8.50;0.90;;;6.50;99.90;;;;;;4931856;29;20040;-82
2023/03/04 02:59:30;;;;;;;4.57;0.82;;;6.50;99.90;;;;;;4948432;29;20040;-82
2023/03/04 03:01:56;;;;;;;17.30;1.20;;;6.60;99.90;;;;;;4948610;29;20019;-82
2023/03/04 03:04:22;;;;;;;8.40;1.83;;;6.60;99.90;;;;;;4948600;29;20016;-82
2023/03/04 03:06:48;;;;;;;7.90;1.92;;;6.60;99.90;;;;;;4931516;29;20024;-82
2023/03/04 03:09:14;;;;;;;6.82;0.73;;;6.60;99.90;;;;;;4947941;29;20059;-83
2023/03/04 03:11:39;;;;;;;13.05;1.30;;;6.50;99.90;;;;;;4932190;29;20028;-82
2023/03/04 03:14:05;;;;;;;8.77;1.70;;;6.60;99.90;;;;;;4948630;29;20025;-82
2023/03/04 03:16:31;;;;;;;6.35;1.08;;;6.60;99.90;;;;;;4931975;29;20039;-82
2023/03/04 03:18:56;;;;;;;11.10;1.52;;;6.60;99.90;;;;;;4931982;29;20020;-82
2023/03/04 03:21:22;;;;;;;10.15;1.23;;;6.60;99.90;;;;;;4945319;29;20064;-83
2023/03/04 03:23:48;;;;;;;8.70;2.00;;;6.60;99.90;;;;;;4925956;29;20074;-83
2023/03/04 03:26:14;;;;;;;3.45;1.25;;;6.60;99.90;;;;;;4922213;29;20027;-83
2023/03/04 03:28:40;;;;;;;11.70;0.98;;;6.60;99.90;;;;;;4931109;29;20040;-82
2023/03/04 03:31:06;;;;;;;17.30;1.25;;;6.60;99.90;;;;;;4949722;29;20040;-83
2023/03/04 03:33:33;;;;;;;6.93;0.98;;;6.60;99.90;;;;;;4947644;28;20031;-82
2023/03/04 03:35:59;;;;;;;10.35;2.47;;;6.50;99.90;;;;;;4924605;29;20024;-83
2023/03/04 03:38:25;;;;;;;9.07;1.13;;;6.50;99.90;;;;;;4913439;29;20044;-83
2023/03/04 03:40:50;;;;;;;6.90;0.88;;;6.50;99.90;;;;;;4922234;29;20040;-82
2023/03/04 03:43:16;;;;;;;6.28;1.30;;;6.50;99.90;;;;;;4930433;29;20036;-81
2023/03/04 03:45:42;;;;;;;9.35;0.95;;;6.60;99.90;;;;;;4928859;29;20052;-81
2023/03/04 03:48:08;;;;;;;5.78;1.65;;;6.60;99.90;;;;;;4908066;29;20412;-82
2023/03/04 03:50:33;;;;;;;11.90;0.95;;;6.60;99.90;;;;;;4925280;29;20504;-82
2023/03/04 03:52:59;;;;;;;10.55;1.50;;;6.60;99.90;;;;;;4908537;29;20488;-81
2023/03/04 03:55:25;;;;;;;6.68;0.73;;;6.50;99.90;;;;;;4908154;29;20032;-83
2023/03/04 03:57:51;;;;;;;6.63;0.93;;;6.60;99.90;;;;;;4907593;29;20048;-83
2023/03/04 04:00:17;;;;;;;12.20;3.22;;;6.60;99.90;;;;;;4907455;29;20040;-82
2023/03/04 04:02:43;;;;;;;8.15;1.10;;;6.50;99.90;;;;;;4922683;29;20047;-82
2023/03/04 04:05:09;;;;;;;5.40;1.05;;;6.40;99.90;;;;;;4923053;29;20028;-81
2023/03/04 04:07:36;;;;;;;6.63;0.77;;;6.40;99.90;;;;;;4902340;29;20034;-81
2023/03/04 04:10:02;;;;;;;4.18;1.38;;;6.50;99.90;;;;;;4920221;29;20020;-82
2023/03/04 04:12:28;;;;;;;12.20;1.02;;;6.40;99.90;;;;;;4920198;29;20036;-82
2023/03/04 04:14:55;;;;;;;5.65;0.63;;;6.50;99.90;;;;;;4920206;29;20030;-82
2023/03/04 04:17:21;;;;;;;6.80;0.80;;;6.50;99.90;;;;;;4919286;29;20079;-81
2023/03/04 04:19:47;;;;;;;8.20;1.17;;;6.50;99.90;;;;;;4901366;29;20080;-82
2023/03/04 04:22:15;;;;;;;10.10;1.10;;;6.50;99.90;;;;;;4894123;29;20032;-82
2023/03/04 04:24:41;;;;;;;7.75;0.70;;;6.60;99.90;;;;;;4902912;29;20028;-82
2023/03/04 04:27:07;;;;;;;17.05;1.38;;;6.60;99.90;;;;;;4918703;29;20020;-81
2023/03/04 04:29:32;;;;;;;9.55;0.80;;;6.60;99.90;;;;;;4902950;29;20493;-82
2023/03/04 04:31:58;;;;;;;11.27;0.90;;;6.50;99.90;;;;;;4903229;29;20027;-82
2023/03/04 04:34:25;;;;;;;8.80;0.93;;;6.50;99.90;;;;;;4902680;29;20016;-82
2023/03/04 04:36:52;;;;;;;11.07;0.88;;;6.50;99.90;;;;;;4902639;29;20370;-83
2023/03/04 04:39:18;;;;;;;8.73;0.80;;;6.50;99.90;;;;;;4919846;29;20612;-84
2023/03/04 04:41:47;;;;;;;6.28;1.38;;;6.50;99.90;;;;;;4920066;29;20028;-82
2023/03/04 04:44:13;;;;;;;8.02;1.50;;;6.50;99.90;;;;;;4902883;29;20078;-82
2023/03/04 04:46:40;;;;;;;8.98;1.58;;;6.50;99.90;;;;;;4902498;29;20489;-82
2023/03/04 04:49:06;;;;;;;6.53;1.25;;;6.40;99.90;;;;;;4902581;29;20064;-82
2023/03/04 04:51:33;;;;;;;9.02;0.70;;;6.40;99.90;;;;;;4901634;29;20043;-81
2023/03/04 04:54:01;;;;;;;2.67;0.93;;;6.40;99.90;;;;;;4902059;29;20481;-83
2023/03/04 04:56:27;;;;;;;16.52;1.88;;;6.40;99.90;;;;;;4919676;29;20012;-82
2023/03/04 04:58:58;;;;;;;4.35;0.60;;;6.40;99.90;;;;;;4919406;29;20070;-83
2023/03/04 05:01:24;;;;;;;17.50;2.72;;;6.40;99.90;;;;;;4919781;29;20031;-82
2023/03/04 05:03:52;;;;;;;4.13;0.60;;;6.40;99.90;;;;;;4900835;29;20481;-83
2023/03/04 05:06:19;;;;;;;3.53;0.70;;;6.40;99.90;;;;;;4899681;29;20036;-82
2023/03/04 05:08:45;;;;;;;3.60;0.55;;;6.50;99.90;;;;;;4916699;29;20513;-82
2023/03/04 05:11:12;;;;;;;8.23;1.33;;;6.50;99.90;;;;;;4921226;29;20024;-82
2023/03/04 05:13:37;;;;;;;5.57;1.15;;;6.50;99.90;;;;;;4917990;29;20493;-82
2023/03/04 05:16:03;;;;;;;14.40;1.30;;;6.50;99.90;;;;;;4919305;29;20034;-83
2023/03/04 05:18:29;;;;;;;5.38;1.15;;;6.50;99.90;;;;;;4918669;29;20028;-84
2023/03/04 05:20:59;;;;;;;4.85;0.80;;;6.50;99.90;;;;;;4901564;29;20552;-83
2023/03/04 05:23:28;;;;;;;10.18;1.27;;;6.50;99.90;;;;;;4918637;29;20362;-85
2023/03/04 05:25:54;;;;;;;2.35;0.65;;;6.50;99.90;;;;;;4918978;29;20115;-83
2023/03/04 05:28:20;;;;;;;4.82;1.10;;;6.50;99.90;;;;;;4901893;29;20119;-84
2023/03/04 05:30:46;;;;;;;7.38;1.40;;;6.50;99.90;;;;;;4919164;29;20465;-82
2023/03/04 05:33:14;;;;;;;8.90;0.88;;;6.50;99.90;;;;;;4902457;29;20024;-82
2023/03/04 05:35:41;;;;;;;;;;;6.50;99.90;;;;;;4919925;29;20119;-84
2023/03/04 05:38:08;;;;;;;7.28;0.90;;;6.50;99.90;;;;;;4901603;29;20269;-82
2023/03/04 05:40:35;;;;;;;10.90;1.13;;;6.50;99.90;;;;;;4901825;29;20030;-83
2023/03/04 05:43:01;;;;;;;3.50;0.73;;;6.40;99.90;;;;;;4929973;29;20388;-83
2023/03/04 05:45:27;;;;;;;4.53;0.63;;;6.30;99.90;;;;;;4890825;29;20021;-83
2023/03/04 05:47:53;;;;;;;5.65;0.77;;;6.30;99.90;;;;;;4901297;29;20039;-83
2023/03/04 05:50:21;;;;;;;3.08;1.15;;;6.30;99.90;;;;;;4918434;29;20036;-83
2023/03/04 05:52:47;;;;;;;7.13;0.83;;;6.30;99.90;;;;;;4899685;29;20497;-83
2023/03/04 05:55:13;;;;;;;2.67;0.73;;;6.20;99.90;;;;;;4901496;29;20040;-84
2023/03/04 05:57:38;;;;;;;6.18;1.45;;;6.20;99.90;;;;;;4901322;29;20044;-82
2023/03/04 06:00:08;;;;;;;6.20;1.30;;;6.30;99.90;;;;;;4901320;29;20118;-83
2023/03/04 06:02:34;;;;;;;8.10;0.80;;;6.30;99.90;;;;;;4901503;29;20035;-83
2023/03/04 06:05:02;;;;;;;4.60;1.33;;;6.30;99.90;;;;;;4917852;29;20028;-85
2023/03/04 06:07:28;;;;;;;6.70;0.68;;;6.20;99.90;;;;;;4897950;29;20050;-84
2023/03/04 06:09:54;;;;;;;5.82;0.60;;;6.20;99.90;;;;;;4919699;29;20020;-84
2023/03/04 06:12:20;;;;;;;6.63;1.13;;;6.10;99.90;;;;;;4900574;29;20044;-83
2023/03/04 06:14:46;;;;;;;5.40;0.70;;;6.20;99.90;;;;;;4900645;29;20024;-84
2023/03/04 06:17:13;;;;;;;6.75;2.25;;;6.20;99.90;;;;;;4897930;29;20092;-83
2023/03/04 06:19:41;;;;;;;3.45;0.80;;;6.20;99.90;;;;;;4917568;29;20036;-83
2023/03/04 06:22:08;;;;;;;12.57;1.63;;;6.20;99.90;;;;;;4889241;29;20036;-83
2023/03/04 06:24:33;;;;;;;6.32;0.65;;;6.20;99.90;;;;;;4917923;29;20088;-82
2023/03/04 06:26:59;;;;;;;5.03;1.20;;;6.20;99.90;;;;;;4918071;29;20024;-83
2023/03/04 06:29:25;;;;;;;3.78;1.08;;;6.20;99.90;;;;;;4900043;29;20016;-84
2023/03/04 06:31:51;;;;;;;7.32;0.77;;;6.20;99.90;;;;;;4900852;29;20141;-82
2023/03/04 06:34:16;;;;;;;6.75;0.70;;;6.20;99.90;;;;;;4917741;29;20025;-83
2023/03/04 06:36:42;;;;;;;6.88;1.05;;;6.20;99.90;;;;;;4900946;29;20023;-82
2023/03/04 06:39:08;;;;;;;5.10;0.82;;;6.20;99.90;;;;;;4913392;29;20052;-81
2023/03/04 06:41:34;;;;;;;7.72;1.23;;;6.20;99.90;;;;;;4914726;29;20028;-81
2023/03/04 06:44:00;;;;;;;2.70;0.82;;;6.30;99.90;;;;;;4900257;29;20446;-80
2023/03/04 06:46:26;;;;;;;2.72;0.95;;;6.30;99.90;;;;;;4917680;29;20032;-81
2023/03/04 06:48:51;;;;;;;11.63;1.02;;;6.30;99.90;;;;;;4917572;29;20386;-81
2023/03/04 06:51:18;;;;;;;8.35;2.30;;;6.30;99.90;;;;;;4917257;29;20067;-81
2023/03/04 06:53:44;;;;;;;5.55;1.45;;;6.40;99.90;;;;;;4899673;29;20036;-82
2023/03/04 06:56:15;;;;;;;8.95;1.58;;;6.40;99.90;;;;;;4917341;29;20028;-82
2023/03/04 06:58:42;;;;;;;6.93;1.17;;;6.40;99.90;;;;;;4917216;29;20048;-84
2023/03/04 07:01:13;;;;;;;1.58;0.40;;;6.40;99.90;;;;;;4917867;29;20123;-82
2023/03/04 07:03:40;;;;;;;4.32;0.75;;;6.40;99.90;;;;;;4900617;29;20035;-84
2023/03/04 07:06:07;;;;;;;2.55;0.50;;;6.40;99.90;;;;;;4917322;29;20028;-81
2023/03/04 07:08:33;;;;;;;2.63;0.40;;;6.40;99.90;;;;;;4900419;29;20029;-82
2023/03/04 07:10:59;;;;;;;2.17;1.02;;;6.40;99.90;;;;;;4917684;29;20043;-82
2023/03/04 07:13:24;;;;;;;2.30;0.45;;;6.50;99.90;;;;;;4915353;29;20172;-82
2023/03/04 07:15:50;;;;;;;4.13;0.68;;;6.50;99.90;;;;;;4900443;29;20036;-82
2023/03/04 07:18:15;;;;;;;3.50;1.25;;;6.50;99.90;;;;;;4917075;29;20103;-81
2023/03/04 07:20:41;;;;;;;2.35;0.57;;;6.60;99.90;;;;;;4917144;29;20033;-82
2023/03/04 07:23:07;;;;;;;12.18;1.52;;;6.50;99.90;;;;;;4916844;29;20035;-81
2023/03/04 07:25:32;;;;;;;8.23;0.40;;;6.50;99.90;;;;;;4899803;29;20461;-83
2023/03/04 07:27:58;;;;;;;8.15;0.93;;;6.40;99.90;;;;;;4917062;29;20473;-82
2023/03/04 07:30:24;;;;;;;3.45;0.73;;;6.50;99.90;;;;;;4916958;29;20082;-82
2023/03/04 07:32:52;;;;;;;3.30;0.80;;;6.50;99.90;;;;;;4916771;29;20398;-81
2023/03/04 07:35:18;;;;;;;11.88;0.95;;;6.70;99.90;;;;;;4916851;29;20108;-81
2023/03/04 07:37:43;;;;;;;7.53;0.98;;;6.70;99.90;;;;;;4916799;29;20064;-81
2023/03/04 07:40:10;;;;;;;4.57;0.75;;;6.70;99.90;;;;;;4900971;29;20040;-81
2023/03/04 07:42:36;;;;;;;2.28;0.50;;;6.70;99.90;;;;;;4901918;29;20032;-82
2023/03/04 07:45:03;;;;;;;5.35;0.80;;;6.80;99.90;;;;;;4884947;29;20039;-83
2023/03/04 07:47:29;;;;;;;6.05;0.57;;;6.80;99.90;;;;;;4900687;29;20490;-81
2023/03/04 07:49:55;;;;;;;1.30;0.47;;;6.90;99.90;;;;;;4901526;29;20021;-82
2023/03/04 07:52:20;;;;;;;3.03;1.02;;;7.00;99.90;;;;;;4911951;29;20518;-83
2023/03/04 07:54:46;;;;;;;2.15;0.70;;;7.10;99.90;;;;;;4917258;29;20148;-83
2023/03/04 07:57:12;;;;;;;5.78;0.77;;;7.10;99.90;;;;;;4920616;29;20071;-80
2023/03/04 07:59:37;;;;;;;4.65;0.82;;;7.10;99.90;;;;;;4922012;29;20496;-79
2023/03/04 08:02:03;;;;;;;11.25;0.80;;;7.10;99.90;;;;;;4906411;29;20080;-80
2023/03/04 08:04:56;;;;;;;8.13;1.20;;;7.10;99.90;;;;;;4911018;29;20032;-80
2023/03/04 08:07:22;;;;;;;6.95;1.23;;;7.10;99.90;;;;;;4902903;29;20059;-81
2023/03/04 08:09:48;;;;;;;4.13;0.70;;;7.10;99.90;;;;;;4931232;29;20032;-79
2023/03/04 08:12:14;;;;;;;6.18;0.93;;;7.20;99.90;;;;;;4904507;29;20036;-80
2023/03/04 08:14:40;;;;;;;4.25;0.85;;;7.20;99.90;;;;;;4919871;29;20040;-79
2023/03/04 08:17:06;;;;;;;6.40;0.85;;;7.20;99.90;;;;;;4902460;29;20409;-79
2023/03/04 08:19:31;;;;;;;9.60;1.02;;;7.30;99.90;;;;;;4902719;29;20032;-80
2023/03/04 08:21:57;;;;;;;2.75;0.82;;;7.30;99.90;;;;;;4929424;29;20036;-79
2023/03/04 08:24:24;;;;;;;8.18;0.90;;;7.20;99.90;;;;;;4902338;29;20095;-79
2023/03/04 08:26:50;;;;;;;2.92;0.90;;;7.20;99.90;;;;;;4902841;29;20032;-80
2023/03/04 08:29:19;;;;;;;5.07;1.15;;;7.30;99.90;;;;;;4919601;29;20043;-80
2023/03/04 08:31:46;;;;;;;1.92;0.88;;;7.20;99.90;;;;;;4902643;29;20050;-79
2023/03/04 08:34:13;;;;;;;6.60;0.93;;;7.20;99.90;;;;;;4903118;29;20034;-80
2023/03/04 08:36:41;;;;;;;1.53;0.60;;;7.20;99.90;;;;;;4919626;29;20132;-80
2023/03/04 08:39:08;;;;;;;2.05;0.80;;;7.30;99.90;;;;;;4919470;29;20287;-80
2023/03/04 08:41:34;;;;;;;10.05;2.50;;;7.40;99.90;;;;;;4918354;29;20115;-81
2023/03/04 08:44:00;;;;;;;0.43;0.40;;;7.40;99.90;;;;;;4918060;29;20123;-82
2023/03/04 08:46:26;;;;;;;1.35;0.50;;;7.60;99.90;;;;;;4902317;29;20040;-81
2023/03/04 08:48:52;;;;;;;5.75;1.63;;;7.60;99.90;;;;;;4908141;29;20071;-79
2023/03/04 08:51:17;;;;;;;1.60;0.88;;;7.60;99.90;;;;;;4906480;29;20036;-80
2023/03/04 08:53:44;;;;;;;3.13;0.47;;;7.60;99.90;;;;;;4921926;29;20481;-80
2023/03/04 08:56:10;;;;;;;0.50;0.45;;;7.60;99.90;;;;;;4926446;29;20034;-82
2023/03/04 08:58:36;;;;;;;4.40;0.57;;;7.60;99.90;;;;;;4910369;29;20120;-79
2023/03/04 09:01:02;;;;;;;5.18;1.33;;;7.70;99.90;;;;;;4916300;29;20045;-79
2023/03/04 09:03:28;;;;;;;2.85;0.77;;;7.80;99.90;;;;;;4888471;29;20040;-81
2023/03/04 09:05:54;;;;;;;2.25;0.60;;;7.90;99.90;;;;;;4888498;29;20158;-80
2023/03/04 09:08:20;;;;;;;2.72;0.68;;;8.10;99.90;;;;;;4895708;29;20024;-78
2023/03/04 09:10:46;;;;;;;3.58;0.80;;;7.90;99.90;;;;;;4903872;29;20111;-80
2023/03/04 09:13:15;;;;;;;4.15;0.40;;;7.70;99.90;;;;;;4903120;29;20028;-78
2023/03/04 09:15:49;;;;;;;0.28;0.28;;;7.80;99.90;;;;;;4901623;29;20076;-79
2023/03/04 09:18:15;;;;;;;2.40;0.65;;;7.80;99.90;;;;;;4898923;29;20025;-80
2023/03/04 09:20:40;;;;;;;3.40;0.40;;;7.90;99.90;;;;;;4905710;29;20032;-80
2023/03/04 09:23:08;;;;;;;4.70;0.43;;;7.80;99.90;;;;;;4903161;29;20076;-80
2023/03/04 09:25:34;;;;;;;1.55;0.43;;;7.90;99.90;;;;;;4902745;29;20029;-80
2023/03/04 09:28:00;;;;;;;2.80;0.50;;;8.10;99.90;;;;;;4886355;29;20051;-79
2023/03/04 09:30:25;;;;;;;1.20;0.55;;;8.30;99.90;;;;;;4902538;29;20043;-79
2023/03/04 09:32:51;;;;;;;0.70;0.47;;;8.30;99.90;;;;;;4903398;29;20060;-79
2023/03/04 09:35:17;;;;;;;1.20;0.50;;;8.20;99.90;;;;;;4888815;29;20400;-79
2023/03/04 09:37:45;;;;;;;2.22;0.45;;;8.10;99.90;;;;;;4905517;29;20047;-80
2023/03/04 09:40:19;;;;;;;5.90;1.15;;;8.10;99.90;;;;;;4888133;29;20085;-79
2023/03/04 09:42:49;;;;;;;0.65;0.63;;;8.10;99.90;;;;;;4889878;29;20371;-79
2023/03/04 09:45:18;;;;;;;2.20;0.70;;;8.00;99.90;;;;;;4889238;29;20040;-80
2023/03/04 09:47:46;;;;;;;1.98;0.60;;;8.10;99.90;;;;;;4904622;29;20032;-79
2023/03/04 09:50:13;;;;;;;1.73;0.90;;;8.10;99.90;;;;;;4914116;29;20028;-79
2023/03/04 09:52:51;;;;;;;0.75;0.38;;;8.10;99.90;;;;;;4940828;29;20095;-79
2023/03/04 09:55:40;;;;;;;1.40;0.60;;;8.00;99.90;;;;;;4925096;29;20060;-79
2023/03/04 09:58:25;;;;;;;0.82;0.82;;;7.90;99.90;;;;;;4925349;29;20047;-78
2023/03/04 10:01:08;;;;;;;2.45;0.93;;;7.90;99.90;;;;;;4930250;29;20053;-77
2023/03/04 10:03:44;;;;;;;3.70;0.73;;;7.80;99.90;;;;;;4909956;29;20024;-79
2023/03/04 10:06:15;;;;;;;0.95;0.80;;;7.90;99.90;;;;;;4888893;29;20025;-79
2023/03/04 10:09:01;;;;;;;1.27;0.88;;;8.00;99.90;;;;;;4916044;29;20044;-78
2023/03/04 10:11:40;;;;;;;4.47;1.17;;;8.10;99.90;;;;;;4922335;29;20036;-79
2023/03/04 10:14:21;;;;;;;0.60;0.60;;;8.20;99.90;;;;;;4923288;29;20021;-78
2023/03/04 10:17:11;;;;;;;1.50;0.85;;;8.60;99.90;;;;;;4907055;29;20096;-79
2023/03/04 10:19:58;;;;;;;3.53;1.00;;;8.80;99.90;;;;;;4923607;29;20021;-80
2023/03/04 10:22:51;;;;;;;8.10;0.63;;;9.10;99.90;;;;;;4923441;29;20024;-79
2023/03/04 10:25:22;;;;;;;1.63;1.00;;;9.20;99.90;;;;;;4923668;29;20028;-79
2023/03/04 10:28:01;;;;;;;5.72;1.17;;;9.40;99.90;;;;;;4922513;29;20050;-77
2023/03/04 10:30:55;;;;;;;3.22;0.90;;;9.40;99.90;;;;;;4927840;29;20028;-83
2023/03/04 10:33:25;;;;;;;4.05;1.00;;;9.10;99.90;;;;;;4939972;29;20061;-78
2023/03/04 10:36:13;;;;;;;8.63;1.60;;;9.20;99.90;;;;;;4913019;29;20024;-81
2023/03/04 10:38:41;;;;;;;2.00;0.90;;;9.10;99.90;;;;;;4917644;29;20035;-78
2023/03/04 10:41:21;;;;;;;4.35;1.73;;;9.20;99.90;;;;;;4906227;29;20023;-76
2023/03/04 10:44:03;;;;;;;0.73;0.55;;;9.30;99.90;;;;;;4898617;29;20029;-79
2023/03/04 10:46:29;;;;;;;1.83;0.90;;;9.20;99.90;;;;;;4895476;29;20037;-79
2023/03/04 10:48:56;;;;;;;3.72;0.77;;;9.10;99.90;;;;;;4904126;29;20069;-78
2023/03/04 10:51:25;;;;;;;4.40;0.85;;;8.80;99.90;;;;;;4903887;29;20054;-79
2023/03/04 10:54:18;;;;;;;1.65;0.60;;;8.80;99.90;;;;;;4915595;29;20073;-76
2023/03/04 10:57:00;;;;;;;1.02;0.50;;;8.70;99.90;;;;;;4878467;29;20036;-79
2023/03/04 10:59:52;;;;;;;1.33;0.47;;;8.60;99.90;;;;;;4937622;29;20041;-78
2023/03/04 11:02:27;;;;;;;5.68;0.80;;;8.70;99.90;;;;;;4939618;29;20028;-78
2023/03/04 11:05:11;;;;;;;3.45;0.30;;;8.80;99.90;;;;;;4935267;29;20036;-77
2023/03/04 11:07:44;;;;;;;1.77;0.63;;;8.90;99.90;;;;;;4923993;29;20114;-78
2023/03/04 11:10:16;;;;;;;3.80;0.77;;;9.10;99.90;;;;;;4921685;29;20028;-78
2023/03/04 11:12:50;;;;;;;3.05;0.60;;;9.20;99.90;;;;;;4919191;29;20032;-77
2023/03/04 11:15:26;;;;;;;6.05;0.90;;;9.50;99.90;;;;;;4906593;29;20035;-79
2023/03/04 11:18:22;;;;;;;1.60;0.60;;;9.70;99.90;;;;;;4907029;29;20024;-78
2023/03/04 11:20:49;;;;;;;8.00;0.80;;;10.00;99.90;;;;;;4889502;29;20040;-77
2023/03/04 11:23:20;;;;;;;2.78;1.27;;;9.80;99.90;;;;;;4923528;29;20032;-77
2023/03/04 11:25:56;;;;;;;3.60;0.52;;;9.70;99.90;;;;;;4932925;29;20048;-78
2023/03/04 11:28:36;;;;;;;3.83;0.80;;;9.50;99.90;;;;;;4904653;29;20119;-78
2023/03/04 11:31:13;;;;;;;2.10;0.90;;;9.00;99.90;;;;;;4900747;29;20581;-77
2023/03/04 11:33:57;;;;;;;3.05;0.65;;;9.00;99.90;;;;;;4903832;29;20032;-77
2023/03/04 11:36:56;;;;;;;2.28;0.60;;;8.70;99.90;;;;;;4900312;29;20477;-80
2023/03/04 11:39:43;;;;;;;4.18;0.50;;;8.30;99.90;;;;;;4903283;29;20111;-78
2023/03/04 11:42:33;;;;;;;3.95;1.00;;;8.00;99.90;;;;;;4902029;29;20028;-78
2023/03/04 11:45:00;;;;;;;2.63;1.08;;;7.90;99.90;;;;;;4892949;29;20473;-79
2023/03/04 11:47:32;;;;;;;0.45;0.22;;;7.80;99.90;;;;;;4920050;29;20548;-79
2023/03/04 11:50:26;;;;;;;1.88;0.32;;;7.80;99.90;;;;;;4903150;29;20119;-79
2023/03/04 11:53:15;;;;;;;4.28;0.40;;;7.90;99.90;;;;;;4920959;29;20024;-78
2023/03/04 11:56:10;;;;;;;1.17;0.22;;;7.90;99.90;;;;;;4903235;29;20117;-78
2023/03/04 11:59:00;;;;;;;1.95;0.73;;;8.20;99.90;;;;;;4920125;29;20060;-78
2023/03/04 12:02:05;;;;;;;3.63;0.50;;;8.30;99.90;;;;;;4902335;29;20032;-78
2023/03/04 12:05:12;;;;;;;2.63;0.40;;;8.60;99.90;;;;;;4900407;29;20028;-79
2023/03/04 12:07:53;;;;;;;5.43;0.90;;;8.80;99.90;;;;;;4900523;29;20084;-78
2023/03/04 12:10:47;;;;;;;0.90;0.30;;;9.00;99.90;;;;;;4903217;29;20031;-79
2023/03/04 12:13:45;;;;;;;2.95;0.50;;;9.20;99.90;;;;;;4901361;29;20131;-79
2023/03/04 12:16:31;;;;;;;1.83;0.57;;;9.30;99.90;;;;;;4859844;29;20490;-79
2023/03/04 12:19:05;;;;;;;5.47;0.80;;;8.90;99.90;;;;;;4903664;29;20040;-79
2023/03/04 12:22:00;;;;;;;1.55;0.50;;;8.80;99.90;;;;;;4918318;29;20043;-80
2023/03/04 12:25:02;;;;;;;5.75;0.70;;;8.70;99.90;;;;;;4916538;29;20171;-79
2023/03/04 12:28:05;;;;;;;2.40;0.65;;;8.40;99.90;;;;;;4918727;29;20036;-78
2023/03/04 12:30:40;;;;;;;7.60;1.00;;;8.20;99.90;;;;;;4902579;29;20040;-78
2023/03/04 12:33:20;;;;;;;3.83;0.70;;;8.10;99.90;;;;;;4919473;29;20024;-78
2023/03/04 12:35:49;;;;;;;3.22;0.85;;;7.90;99.90;;;;;;4901907;29;20035;-77
2023/03/04 12:38:26;;;;;;;3.08;0.40;;;7.90;99.90;;;;;;4900016;29;20043;-78
2023/03/04 12:41:04;;;;;;;8.35;1.15;;;7.90;99.90;;;;;;4902442;29;20399;-78
2023/03/04 12:43:46;;;;;;;2.15;0.60;;;7.90;99.90;;;;;;4902090;29;20123;-79
2023/03/04 12:46:27;;;;;;;7.45;0.98;;;8.20;99.90;;;;;;4919409;29;20040;-80
2023/03/04 12:49:27;;;;;;;9.88;0.60;;;8.30;99.90;;;;;;4908196;29;20036;-77
2023/03/04 12:52:15;;;;;;;4.35;0.70;;;8.40;99.90;;;;;;4918834;29;20028;-80
2023/03/04 12:54:56;;;;;;;17.35;1.92;;;8.50;99.90;;;;;;4918912;29;20053;-77
2023/03/04 12:57:24;;;;;;;7.22;1.02;;;8.50;99.90;;;;;;4904987;29;20039;-78
2023/03/04 13:00:08;;;;;;;8.05;1.33;;;8.60;99.90;;;;;;4910338;29;20052;-78
2023/03/04 13:02:58;;;;;;;5.28;1.23;;;8.60;99.90;;;;;;4918685;29;20038;-79
2023/03/04 13:05:30;;;;;;;17.30;1.02;;;8.60;99.90;;;;;;4902423;29;20047;-77
2023/03/04 13:08:12;;;;;;;6.55;1.27;;;8.50;99.90;;;;;;4918982;29;20548;-78
2023/03/04 13:10:38;;;;;;;13.00;1.58;;;8.50;99.90;;;;;;4901973;29;20036;-79
2023/03/04 13:13:04;;;;;;;7.05;1.15;;;8.90;99.90;;;;;;4898764;29;20115;-78